GMMXGMML

Guest
Details From GMMX - MENARA
To GMML - HASSAN I
Flight Number -
Tags generated
Created
Modified
Stats Distance 382 nm / 707 km
Max Altitude 35,000 ft / 10,668 m
Waypoints 4
Social Downloads 1
Likes 0
Share VATSIM

Download

Looking for another format? Having issues loading an existing format? Contact us
Advertisement - Login to hide

Notes

Basic altitude profile: - Ascent Rate: 2500ft/min - Ascent Speed: 250kts - Cruise Altitude: 35000ft - Cruise Speed: 420kts - Descent Rate: 1500ft/min - Descent Speed: 250kts Options: - Use NATs: yes - Use PACOTS: yes - Use low airways: yes - Use high airways: yes

Route

GMMX ADM UA600 SOLNA GMML

ID Type Via Altitude (ft/m) Position (lat/lon) Dist (leg/tot) Name
O GMMX APT - 0 / 0 31.60692 / -8.03627 - / 0 nm MENARA
ADM VOR - 35,000 / 10,668 30.32194 / -9.38333 103 / 103 nm AGADIR VOR-DME
SOLNA FIX UA600 (AWY-HI) 9,800 / 2,987 27.66667 / -12.59528 232 / 335 nm
O GMML APT - 0 / 0 27.14365 / -13.22540 45 / 381 nm HASSAN I

Altitude Profile

Advertisement - Login to hide

Weather


0- 5 10 15 20 25 30 35+ Temperature / °C

Clouds and Precipitation
Forecast for 2018-09-21 00:00 UTC. Updated 2 hours ago

Ground ~20,000 ft ~40,000 ft Winds

GMMX

Details ICAO GMMX (RAK)
Name MENARA
Region Morocco
Timezone Africa/Casablanca (UTC+1.0)
Stats Elevation 1,544 ft / 471 m (AMSL)
Location 31.606900° -8.036270°
Runways 1
Magnetic Variation 1.914° W

METAR

GMMX 202330Z 24007KT 9999 FEW026 24/16 Q1019 NOSIG

Decode

TAF

TAF GMMX 201700Z 2018/2124 34014KT 8000 SCT023 TEMPO 2018/2022 TS FEW033CB BECMG 2023/2101 24006KT NSC TEMPO 2116/2121 34014KT 5000 TSRA SCT023 FEW033CB

Decode

Departure Runways

ID Width Length Bearing (true/mag) Surface Threshold Overrun Markings Lighting
10 147 ft / 45 m 10,123 ft / 3,085 m 95.92° / 97.83° ASPHALT 0 ft / 0 m 33 ft / 10 m PREC-APP EDGE THRESHOLD
28 147 ft / 45 m 10,123 ft / 3,085 m 275.93° / 277.85° ASPHALT 0 ft / 0 m 20 ft / 6 m APP EDGE THRESHOLD

GMML

Details ICAO GMML (EUN)
Name HASSAN I
Region Morocco
Timezone Africa/El_Aaiun (UTC+1.0)
Stats Elevation 207 ft / 63 m (AMSL)
Location 27.143700° -13.225400°
Runways 2
Magnetic Variation 3.871° W

METAR

GMML 202300Z 36016KT 8000 NSC 22/19 Q1018 NOSIG

Decode

TAF

TAF GMML 201700Z 2018/2124 36016KT CAVOK BECMG 2021/2024 BKN013 BECMG 2110/2114 NSC

Decode

Destination Runways

ID Width Length Bearing (true/mag) Surface Threshold Overrun Markings Lighting
02 148 ft / 45 m 8,890 ft / 2,710 m 16.42° / 20.30° ASPHALT 0 ft / 0 m 200 ft / 61 m APP EDGE THRESHOLD
04 148 ft / 45 m 8,221 ft / 2,506 m 31.58° / 35.46° ASPHALT 0 ft / 0 m 0 ft / 0 m APP EDGE THRESHOLD
20 148 ft / 45 m 8,890 ft / 2,710 m 196.43° / 200.30° ASPHALT 0 ft / 0 m 200 ft / 61 m APP EDGE THRESHOLD
22 148 ft / 45 m 8,221 ft / 2,506 m 211.59° / 215.46° ASPHALT 0 ft / 0 m 658 ft / 201 m APP EDGE THRESHOLD

Popular Alternatives